Airfield :
LOGIN :

Register | Disclaimer

   EN    FR    IT 

 










Legend :    VFR   Marginal VFR   IFR   Intensive IFR   Very Intensive IFR
Visi :
Ceiling :
>= 8 km
>= 3000ft
5 to 8 km
1000 to 3000 ft
1500m to 5 km
500 to 1000 ft
800 to 1500m
200 to 500 ft
< 800m
< 200 ft
Symbols :   Thunderstorms  Fog  Heavy snow  Heavy precipitations  Wind > 20 kt
SIGMETs :     Misc.  Thunderstorms  Icing  Turbulence  Mountain Waves  Volcanic Ashes






- Airport Elevation : 291 ft
- IATA code : ORY


LFPO - Paris-Orly

CURRENT METAR :
  • 100930Z 19006KT CAVOK 02/01 Q1027 NOSIG

EXPIRED METARs :
  • 100900Z 18005KT CAVOK 02/01 Q1027 NOSIG
  • 100830Z 18006KT CAVOK 01/00 Q1027 NOSIG
  • 100800Z 19006KT CAVOK 00/M00 Q1028 NOSIG
  • 100730Z 19006KT CAVOK 00/M00 Q1028 NOSIG
  • 100700Z 19005KT CAVOK 00/M00 Q1028 NOSIG

TAF AMD TAF LFPO
Valid from the 10 at 08:00 until the 11 at 12:00 UTC


100810Z 1008/1112 20005KT CAVOK
BECMG 1017/1019 -RA BKN030
TEMPO 1017/1103 20013G25KT
PROB40
TEMPO 1101/1109 BKN011
PROB30
TEMPO 1101/1109 4000 BR BKN008
BECMG 1109/1111 CAVOK
ATIS : +33 1 49 75 65 80



MET'MAP, your aeronautical weather chart ! - Copyright ORBIFLY December 2007 - Disclaimer

ORBIFLY MET'MAP TEAM :

Programming & Development : Alexandra Zaïnal
Concept & original design : Baudouin d'Aumeries
Assistance for programming : Marc-Olivier Méhu
Technical & hardware support : Manuel Goepfert

Contact : metmap@orbifly.com




SOURCES & CREDITS :

   NOAA